Time;durP1;ratioP1;P1;durP2;ratioP2;P2;SDS_P1;SDS_P2;PMS_P1;PMS_P2;Temp;Humidity;BMP_temperature;BMP_pressure;BME280_temperature;BME280_humidity;BME280_pressure;Samples;Min_cycle;Max_cycle;Signal;HPM_P1;HPM_P2
2023/03/05 00:01:24;;;;;;;8.32;2.17;;;6.60;99.90;;;;;;4112300;28;20114;-62
2023/03/05 00:03:24;;;;;;;6.63;1.65;;;6.60;99.90;;;;;;4108497;28;20670;-62
2023/03/05 00:05:25;;;;;;;3.95;1.42;;;6.60;99.90;;;;;;4109620;28;20054;-62
2023/03/05 00:07:25;;;;;;;11.73;2.72;;;6.60;99.90;;;;;;4114911;28;20027;-62
2023/03/05 00:09:26;;;;;;;8.93;2.47;;;6.70;99.90;;;;;;4101771;28;20045;-62
2023/03/05 00:11:28;;;;;;;8.23;2.25;;;6.60;99.90;;;;;;4109965;28;20033;-62
2023/03/05 00:13:30;;;;;;;11.43;2.13;;;6.60;99.90;;;;;;4110543;28;20077;-62
2023/03/05 00:15:30;;;;;;;8.48;2.08;;;6.60;99.90;;;;;;4110741;28;20174;-62
2023/03/05 00:17:31;;;;;;;8.50;2.40;;;6.60;99.90;;;;;;4116318;28;20533;-62
2023/03/05 00:19:31;;;;;;;5.45;1.80;;;6.70;99.90;;;;;;4110527;28;20398;-62
2023/03/05 00:21:34;;;;;;;6.70;2.03;;;6.70;99.90;;;;;;4113863;28;20378;-62
2023/03/05 00:23:35;;;;;;;10.25;2.30;;;6.70;99.90;;;;;;4110784;28;20045;-62
2023/03/05 00:25:36;;;;;;;4.68;1.52;;;6.60;99.90;;;;;;4109788;28;20078;-62
2023/03/05 00:27:37;;;;;;;7.20;1.88;;;6.70;99.90;;;;;;4115307;28;20054;-62
2023/03/05 00:29:37;;;;;;;13.43;2.35;;;6.70;99.90;;;;;;4110895;28;20086;-62
2023/03/05 00:31:38;;;;;;;11.60;1.88;;;6.70;99.90;;;;;;4109673;28;20035;-62
2023/03/05 00:33:39;;;;;;;10.52;2.40;;;6.70;99.90;;;;;;4108629;28;20049;-62
2023/03/05 00:35:44;;;;;;;7.65;2.28;;;6.70;99.90;;;;;;4112062;28;20042;-62
2023/03/05 00:37:45;;;;;;;7.28;1.98;;;6.60;99.90;;;;;;4119877;28;20038;-62
2023/03/05 00:39:45;;;;;;;11.00;2.50;;;6.60;99.90;;;;;;4109673;28;21643;-62
2023/03/05 00:41:46;;;;;;;8.88;2.33;;;6.50;99.90;;;;;;4110528;28;20023;-62
2023/03/05 00:43:47;;;;;;;9.73;2.35;;;6.50;99.90;;;;;;4110555;28;20031;-62
2023/03/05 00:45:48;;;;;;;13.35;2.70;;;6.50;99.90;;;;;;4111130;28;20478;-62
2023/03/05 00:47:48;;;;;;;9.43;2.30;;;6.50;99.90;;;;;;4115072;28;20031;-62
2023/03/05 00:49:49;;;;;;;9.95;2.58;;;6.50;99.90;;;;;;4115987;28;20027;-64
2023/03/05 00:51:50;;;;;;;10.32;2.63;;;6.50;99.90;;;;;;4109135;28;20046;-63
2023/03/05 00:53:50;;;;;;;8.38;2.00;;;6.50;99.90;;;;;;4110799;28;20035;-62
2023/03/05 00:55:51;;;;;;;5.40;1.92;;;6.50;99.90;;;;;;4109468;28;20035;-62
2023/03/05 00:57:52;;;;;;;10.35;3.15;;;6.50;99.90;;;;;;4113779;28;20118;-62
2023/03/05 00:59:52;;;;;;;12.20;2.13;;;6.60;99.90;;;;;;4111196;28;20043;-62
2023/03/05 01:01:53;;;;;;;10.57;2.40;;;6.50;99.90;;;;;;4108343;28;20050;-62
2023/03/05 01:03:56;;;;;;;5.63;1.77;;;6.60;99.90;;;;;;4110030;28;20082;-62
2023/03/05 01:05:57;;;;;;;13.25;2.22;;;6.60;99.90;;;;;;4113726;28;20520;-62
2023/03/05 01:07:58;;;;;;;8.10;1.83;;;6.50;99.90;;;;;;4115122;28;20809;-62
2023/03/05 01:09:59;;;;;;;10.27;2.67;;;6.60;99.90;;;;;;4110420;28;20348;-62
2023/03/05 01:12:00;;;;;;;13.32;2.75;;;6.60;99.90;;;;;;4108321;28;20089;-62
2023/03/05 01:14:00;;;;;;;10.50;2.85;;;6.50;99.90;;;;;;4111244;28;20426;-61
2023/03/05 01:16:02;;;;;;;9.20;2.15;;;6.50;99.90;;;;;;4110304;28;20038;-62
2023/03/05 01:18:03;;;;;;;13.98;2.58;;;6.50;99.90;;;;;;4113728;28;20146;-62
2023/03/05 01:20:04;;;;;;;7.72;2.33;;;6.50;99.90;;;;;;4108952;28;20054;-62
2023/03/05 01:22:05;;;;;;;18.90;2.53;;;6.50;99.90;;;;;;4110196;28;20038;-62
2023/03/05 01:24:06;;;;;;;9.82;2.33;;;6.50;99.90;;;;;;4111234;28;20031;-62
2023/03/05 01:26:07;;;;;;;8.75;2.30;;;6.50;99.90;;;;;;4111068;28;20457;-62
2023/03/05 01:28:08;;;;;;;10.65;2.25;;;6.50;99.90;;;;;;4117738;28;20387;-62
2023/03/05 01:30:11;;;;;;;10.02;2.40;;;6.50;99.90;;;;;;4108202;28;20106;-62
2023/03/05 01:32:12;;;;;;;8.27;2.50;;;6.50;99.90;;;;;;4103306;28;20114;-62
2023/03/05 01:34:12;;;;;;;10.25;2.53;;;6.50;99.90;;;;;;4116610;28;20065;-62
2023/03/05 01:36:15;;;;;;;6.72;1.92;;;6.50;99.90;;;;;;4108858;28;20089;-62
2023/03/05 01:38:16;;;;;;;7.47;2.40;;;6.50;99.90;;;;;;4111811;28;20089;-62
2023/03/05 01:40:26;;;;;;;7.57;2.08;;;6.50;99.90;;;;;;4109363;28;20065;-62
2023/03/05 01:42:27;;;;;;;8.15;2.00;;;6.50;99.90;;;;;;4110807;28;20035;-62
2023/03/05 01:44:28;;;;;;;12.85;2.97;;;6.40;99.90;;;;;;4109618;28;20394;-62
2023/03/05 01:46:37;;;;;;;17.90;3.00;;;6.40;99.90;;;;;;4116642;28;20026;-62
2023/03/05 01:48:39;;;;;;;12.95;3.17;;;6.40;99.90;;;;;;4110663;28;20490;-62
2023/03/05 01:50:40;;;;;;;6.50;2.42;;;6.40;99.90;;;;;;4110378;28;20041;-62
2023/03/05 01:52:45;;;;;;;14.30;2.90;;;6.30;99.90;;;;;;4114019;28;20031;-62
2023/03/05 01:54:49;;;;;;;9.07;2.67;;;6.30;99.90;;;;;;4112466;28;20043;-62
2023/03/05 01:56:52;;;;;;;9.95;2.83;;;6.20;99.90;;;;;;4112717;28;20031;-63
2023/03/05 01:59:02;;;;;;;8.68;2.47;;;6.20;99.90;;;;;;4120428;28;20375;-62
2023/03/05 02:01:02;;;;;;;12.80;3.25;;;6.20;99.90;;;;;;4110267;28;20046;-62
2023/03/05 02:03:06;;;;;;;8.88;2.47;;;6.20;99.90;;;;;;4115277;28;20502;-62
2023/03/05 02:05:11;;;;;;;17.73;3.13;;;6.20;99.90;;;;;;4101268;28;20047;-63
2023/03/05 02:07:14;;;;;;;7.90;2.67;;;6.10;99.90;;;;;;4101249;28;20050;-62
2023/03/05 02:09:14;;;;;;;14.23;3.15;;;6.10;99.90;;;;;;4083965;28;20052;-62
2023/03/05 02:11:15;;;;;;;14.30;2.85;;;6.10;99.90;;;;;;4100033;28;20066;-62
2023/03/05 02:13:25;;;;;;;11.57;2.50;;;6.10;99.90;;;;;;4102973;28;20043;-62
2023/03/05 02:15:25;;;;;;;7.78;2.42;;;6.00;99.90;;;;;;4101646;28;20081;-61
2023/03/05 02:17:27;;;;;;;7.75;2.15;;;6.10;99.90;;;;;;4102185;28;20116;-62
2023/03/05 02:19:27;;;;;;;8.23;2.10;;;6.10;99.90;;;;;;4103434;28;20038;-62
2023/03/05 02:21:36;;;;;;;12.95;2.67;;;6.10;99.90;;;;;;4103569;28;20395;-62
2023/03/05 02:23:38;;;;;;;9.07;2.03;;;6.10;99.90;;;;;;4093806;28;20223;-62
2023/03/05 02:25:38;;;;;;;8.25;2.10;;;6.10;99.90;;;;;;4109676;28;20478;-62
2023/03/05 02:27:41;;;;;;;8.98;2.00;;;6.10;99.90;;;;;;4114572;28;20094;-62
2023/03/05 02:29:45;;;;;;;11.40;2.88;;;6.10;99.90;;;;;;4112832;28;20033;-62
2023/03/05 02:31:45;;;;;;;10.02;2.05;;;6.00;99.90;;;;;;4109890;28;20425;-62
2023/03/05 02:33:47;;;;;;;6.28;1.75;;;6.00;99.90;;;;;;4115558;28;20049;-62
2023/03/05 02:35:47;;;;;;;8.38;2.03;;;6.00;99.90;;;;;;4110506;28;20065;-62
2023/03/05 02:37:48;;;;;;;5.97;2.28;;;6.10;99.90;;;;;;4117526;28;20031;-62
2023/03/05 02:39:49;;;;;;;7.93;2.00;;;6.00;99.90;;;;;;4111501;28;20085;-62
2023/03/05 02:41:49;;;;;;;9.88;2.33;;;6.10;99.90;;;;;;4110725;28;20042;-64
2023/03/05 02:43:50;;;;;;;7.30;1.80;;;6.10;99.90;;;;;;4112552;28;20031;-63
2023/03/05 02:45:51;;;;;;;6.97;1.80;;;6.10;99.90;;;;;;4109458;28;20027;-62
2023/03/05 02:47:52;;;;;;;6.72;1.92;;;6.10;99.90;;;;;;4113665;28;20352;-62
2023/03/05 02:49:53;;;;;;;4.78;1.42;;;6.20;99.90;;;;;;4110759;28;20043;-62
2023/03/05 02:51:54;;;;;;;16.00;2.58;;;6.20;99.90;;;;;;4104360;28;20096;-62
2023/03/05 02:53:54;;;;;;;9.68;2.58;;;6.20;99.90;;;;;;4112299;28;20058;-62
2023/03/05 02:55:55;;;;;;;12.43;2.85;;;6.10;99.90;;;;;;4114162;28;20117;-62
2023/03/05 02:57:55;;;;;;;6.45;2.08;;;6.10;99.90;;;;;;4113182;28;20046;-62
2023/03/05 02:59:56;;;;;;;10.20;2.38;;;6.10;99.90;;;;;;4109847;28;20039;-62
2023/03/05 03:01:56;;;;;;;10.20;2.35;;;6.10;99.90;;;;;;4110879;28;20113;-62
2023/03/05 03:03:57;;;;;;;9.18;2.20;;;6.00;99.90;;;;;;4109668;28;20034;-62
2023/03/05 03:05:58;;;;;;;6.80;1.90;;;6.00;99.90;;;;;;4115283;28;20061;-62
2023/03/05 03:07:58;;;;;;;6.78;2.03;;;6.10;99.90;;;;;;4113705;28;20110;-62
2023/03/05 03:09:59;;;;;;;9.15;2.58;;;6.10;99.90;;;;;;4116564;28;20038;-62
2023/03/05 03:12:00;;;;;;;6.50;1.90;;;6.10;99.90;;;;;;4111420;28;20453;-62
2023/03/05 03:14:00;;;;;;;5.78;1.80;;;6.10;99.90;;;;;;4113959;28;20038;-62
2023/03/05 03:16:10;;;;;;;8.20;1.98;;;6.10;99.90;;;;;;4110208;28;20673;-62
2023/03/05 03:18:11;;;;;;;6.70;1.80;;;6.00;99.90;;;;;;4109638;28;20050;-62
2023/03/05 03:20:15;;;;;;;5.95;1.80;;;6.00;99.90;;;;;;4106114;28;20042;-63
2023/03/05 03:22:16;;;;;;;8.05;2.13;;;6.00;99.90;;;;;;4113402;28;20034;-62
2023/03/05 03:24:16;;;;;;;8.13;2.15;;;6.00;99.90;;;;;;4111046;28;20110;-62
2023/03/05 03:26:17;;;;;;;7.10;2.08;;;6.00;99.90;;;;;;4109982;28;20041;-62
2023/03/05 03:28:18;;;;;;;6.43;1.98;;;6.00;99.90;;;;;;4112930;28;20609;-62
2023/03/05 03:30:18;;;;;;;8.38;2.15;;;6.00;99.90;;;;;;4107873;28;20114;-62
2023/03/05 03:32:19;;;;;;;9.57;2.00;;;6.10;99.90;;;;;;4116300;28;20030;-62
2023/03/05 03:34:20;;;;;;;9.52;2.28;;;6.00;99.90;;;;;;4116947;28;20027;-64
2023/03/05 03:36:20;;;;;;;11.50;2.53;;;6.10;99.90;;;;;;4112810;28;20493;-62
2023/03/05 03:38:21;;;;;;;6.43;2.13;;;6.10;99.90;;;;;;4113387;28;20478;-62
2023/03/05 03:40:21;;;;;;;12.15;2.38;;;6.00;99.90;;;;;;4110463;28;20433;-62
2023/03/05 03:42:22;;;;;;;10.40;2.65;;;6.10;99.90;;;;;;4113647;28;20041;-62
2023/03/05 03:44:23;;;;;;;6.55;2.08;;;6.00;99.90;;;;;;4110587;28;20034;-62
2023/03/05 03:46:24;;;;;;;6.95;1.90;;;6.00;99.90;;;;;;4108081;28;20035;-62
2023/03/05 03:48:24;;;;;;;8.63;1.73;;;6.00;99.90;;;;;;4111097;28;20089;-62
2023/03/05 03:50:25;;;;;;;6.57;1.83;;;6.10;99.90;;;;;;4114479;28;20406;-62
2023/03/05 03:52:26;;;;;;;7.28;1.70;;;6.10;99.90;;;;;;4111261;28;20035;-62
2023/03/05 03:54:26;;;;;;;7.18;1.85;;;6.10;99.90;;;;;;4111472;28;20035;-62
2023/03/05 03:56:27;;;;;;;11.02;2.05;;;6.20;99.90;;;;;;4114028;28;20398;-62
2023/03/05 03:58:28;;;;;;;6.90;1.77;;;6.20;99.90;;;;;;4111169;28;20542;-62
2023/03/05 04:00:28;;;;;;;6.18;1.92;;;6.20;99.90;;;;;;4108447;28;20434;-62
2023/03/05 04:02:29;;;;;;;8.65;2.30;;;6.20;99.90;;;;;;4110570;28;20117;-62
2023/03/05 04:04:29;;;;;;;3.97;1.58;;;6.20;99.90;;;;;;4109798;28;20078;-61
2023/03/05 04:06:31;;;;;;;5.28;1.42;;;6.30;99.90;;;;;;4111601;28;20038;-62
2023/03/05 04:08:31;;;;;;;6.85;2.17;;;6.30;99.90;;;;;;4121762;28;20562;-62
2023/03/05 04:10:32;;;;;;;7.30;1.55;;;6.30;99.90;;;;;;4109237;28;20031;-62
2023/03/05 04:12:32;;;;;;;6.35;1.40;;;6.30;99.90;;;;;;4110223;28;20057;-62
2023/03/05 04:14:33;;;;;;;4.38;1.48;;;6.30;99.90;;;;;;4109131;28;20046;-61
2023/03/05 04:16:34;;;;;;;6.57;1.88;;;6.30;99.90;;;;;;4115067;28;20039;-62
2023/03/05 04:18:34;;;;;;;4.45;1.48;;;6.30;99.90;;;;;;4113037;28;20398;-62
2023/03/05 04:20:35;;;;;;;6.72;2.03;;;6.30;99.90;;;;;;4108807;28;20113;-62
2023/03/05 04:22:36;;;;;;;7.57;1.75;;;6.30;99.90;;;;;;4109710;28;20045;-62
2023/03/05 04:24:37;;;;;;;7.00;2.05;;;6.40;99.90;;;;;;4111273;28;20420;-62
2023/03/05 04:26:38;;;;;;;6.70;1.90;;;6.30;99.90;;;;;;4107826;28;20074;-62
2023/03/05 04:28:38;;;;;;;3.58;1.63;;;6.30;99.90;;;;;;4111833;28;20047;-62
2023/03/05 04:30:39;;;;;;;7.30;1.60;;;6.30;99.90;;;;;;4108081;28;20110;-62
2023/03/05 04:32:40;;;;;;;8.68;2.03;;;6.30;99.90;;;;;;4110177;28;20043;-62
2023/03/05 04:34:41;;;;;;;7.53;1.77;;;6.30;99.90;;;;;;4116414;28;20027;-62
2023/03/05 04:36:41;;;;;;;8.60;2.33;;;6.20;99.90;;;;;;4110153;28;20042;-62
2023/03/05 04:38:42;;;;;;;6.75;1.90;;;6.20;99.90;;;;;;4117136;28;20041;-62
2023/03/05 04:40:44;;;;;;;9.00;2.08;;;6.20;99.90;;;;;;4102578;28;20046;-62
2023/03/05 04:42:44;;;;;;;11.43;2.20;;;6.20;99.90;;;;;;4109692;28;20510;-62
2023/03/05 04:44:47;;;;;;;6.85;2.28;;;6.10;99.90;;;;;;4107205;28;20039;-66
2023/03/05 04:46:48;;;;;;;7.70;2.10;;;6.10;99.90;;;;;;4108793;28;20047;-62
2023/03/05 04:48:49;;;;;;;6.63;2.20;;;6.10;99.90;;;;;;4110570;28;20081;-62
2023/03/05 04:50:49;;;;;;;5.97;1.50;;;6.10;99.90;;;;;;4107098;28;20043;-61
2023/03/05 04:52:50;;;;;;;4.35;1.40;;;6.10;99.90;;;;;;4111286;28;20046;-63
2023/03/05 04:54:53;;;;;;;7.43;2.25;;;6.10;99.90;;;;;;4108322;28;20036;-62
2023/03/05 04:56:53;;;;;;;;;;;6.10;99.90;;;;;;4111377;28;20046;-62
2023/03/05 04:58:54;;;;;;;8.68;2.00;;;6.10;99.90;;;;;;4112965;28;19922;-62
2023/03/05 05:01:00;;;;;;;7.38;2.72;;;6.10;99.90;;;;;;4106752;28;20137;-62
2023/03/05 05:03:00;;;;;;;6.90;1.88;;;6.10;99.90;;;;;;4110444;28;20030;-62
2023/03/05 05:05:01;;;;;;;10.45;2.22;;;6.00;99.90;;;;;;4109619;28;20051;-62
2023/03/05 05:07:03;;;;;;;6.40;2.28;;;6.00;99.90;;;;;;4111114;28;20026;-61
2023/03/05 05:09:04;;;;;;;8.52;1.67;;;6.00;99.90;;;;;;4113386;28;20031;-62
2023/03/05 05:11:06;;;;;;;8.65;1.92;;;6.00;99.90;;;;;;4107379;28;20038;-62
2023/03/05 05:13:07;;;;;;;;;;;6.00;99.90;;;;;;4112767;28;20031;-62
2023/03/05 05:15:08;;;;;;;8.82;2.20;;;6.00;99.90;;;;;;4106926;28;19960;-62
2023/03/05 05:17:08;;;;;;;7.25;2.38;;;6.00;99.90;;;;;;4109953;28;20061;-62
2023/03/05 05:19:09;;;;;;;6.80;2.05;;;6.00;99.90;;;;;;4110762;28;20039;-62
2023/03/05 05:21:12;;;;;;;8.48;2.35;;;6.00;99.90;;;;;;4107153;28;20550;-62
2023/03/05 05:23:13;;;;;;;6.65;2.08;;;6.00;99.90;;;;;;4110267;28;20050;-62
2023/03/05 05:25:14;;;;;;;6.45;2.25;;;6.00;99.90;;;;;;4106381;28;20114;-62
2023/03/05 05:27:14;;;;;;;7.57;1.92;;;6.00;99.90;;;;;;4114953;28;20034;-62
2023/03/05 05:29:15;;;;;;;8.77;2.60;;;6.00;99.90;;;;;;4114042;28;20041;-62
2023/03/05 05:31:18;;;;;;;9.20;2.25;;;6.00;99.90;;;;;;4110434;28;20105;-63
2023/03/05 05:33:18;;;;;;;7.25;2.00;;;6.00;99.90;;;;;;4116237;28;20038;-62
2023/03/05 05:35:19;;;;;;;6.70;2.25;;;5.90;99.90;;;;;;4109839;28;20055;-62
2023/03/05 05:37:20;;;;;;;9.30;2.42;;;5.90;99.90;;;;;;4114205;28;20111;-63
2023/03/05 05:39:21;;;;;;;10.10;2.80;;;5.90;99.90;;;;;;4108464;28;20082;-63
2023/03/05 05:41:22;;;;;;;7.82;2.10;;;5.80;99.90;;;;;;4093720;28;20043;-63
2023/03/05 05:43:22;;;;;;;8.68;2.15;;;5.90;99.90;;;;;;4113504;28;20057;-62
2023/03/05 05:45:23;;;;;;;7.38;2.30;;;5.90;99.90;;;;;;4109999;28;20055;-62
2023/03/05 05:47:23;;;;;;;9.63;2.47;;;5.90;99.90;;;;;;4112738;28;20084;-62
2023/03/05 05:49:24;;;;;;;10.05;2.83;;;5.90;99.90;;;;;;4110667;28;20041;-62
2023/03/05 05:51:24;;;;;;;8.80;2.70;;;5.80;99.90;;;;;;4109410;28;20043;-62
2023/03/05 05:53:25;;;;;;;5.78;2.40;;;5.80;99.90;;;;;;4112272;28;20053;-62
2023/03/05 05:55:26;;;;;;;7.95;2.30;;;5.90;99.90;;;;;;4107991;28;20506;-62
2023/03/05 05:57:26;;;;;;;8.50;2.55;;;5.90;99.90;;;;;;4113181;28;20553;-62
2023/03/05 05:59:27;;;;;;;7.47;2.42;;;5.80;99.90;;;;;;4110745;28;20035;-62
2023/03/05 06:01:31;;;;;;;7.78;2.28;;;5.90;99.90;;;;;;4108125;28;20512;-62
2023/03/05 06:03:31;;;;;;;9.63;3.13;;;5.90;99.90;;;;;;4106996;28;20121;-62
2023/03/05 06:05:33;;;;;;;6.20;2.47;;;5.90;99.90;;;;;;4112152;28;20042;-62
2023/03/05 06:07:34;;;;;;;9.27;2.63;;;5.90;99.90;;;;;;4111587;28;20383;-62
2023/03/05 06:09:35;;;;;;;5.80;2.33;;;5.90;99.90;;;;;;4110782;28;20053;-62
2023/03/05 06:11:37;;;;;;;8.70;2.83;;;5.90;99.90;;;;;;4109931;28;20046;-62
2023/03/05 06:13:38;;;;;;;9.02;2.42;;;5.90;99.90;;;;;;4111979;28;20037;-62
2023/03/05 06:15:38;;;;;;;8.65;2.42;;;5.90;99.90;;;;;;4109346;28;20549;-62
2023/03/05 06:17:39;;;;;;;7.63;2.20;;;5.90;99.90;;;;;;4109800;28;20478;-62
2023/03/05 06:19:39;;;;;;;9.02;2.17;;;5.90;99.90;;;;;;4106160;28;20502;-62
2023/03/05 06:21:42;;;;;;;10.55;2.42;;;5.90;99.90;;;;;;4104919;28;20387;-62
2023/03/05 06:23:44;;;;;;;8.68;2.70;;;5.90;99.90;;;;;;4106684;28;20027;-62
2023/03/05 06:25:45;;;;;;;6.68;2.47;;;5.80;99.90;;;;;;4108235;28;20477;-62
2023/03/05 06:27:45;;;;;;;12.20;2.83;;;5.90;99.90;;;;;;4111089;28;20039;-62
2023/03/05 06:29:46;;;;;;;9.20;2.42;;;5.90;99.90;;;;;;4105899;28;20411;-62
2023/03/05 06:31:47;;;;;;;9.95;2.80;;;5.80;99.90;;;;;;4104991;28;20046;-65
2023/03/05 06:33:48;;;;;;;6.68;2.50;;;5.90;99.90;;;;;;4110109;28;20085;-62
2023/03/05 06:35:49;;;;;;;10.13;3.03;;;5.80;99.90;;;;;;4112406;28;20026;-62
2023/03/05 06:37:49;;;;;;;8.75;2.50;;;5.90;99.90;;;;;;4110905;28;20039;-62
2023/03/05 06:39:50;;;;;;;9.07;2.70;;;5.80;99.90;;;;;;4108007;28;20102;-63
2023/03/05 06:41:51;;;;;;;6.07;2.05;;;5.90;99.90;;;;;;4105747;28;20035;-63
2023/03/05 06:43:52;;;;;;;5.47;2.40;;;5.90;99.90;;;;;;4109546;28;20073;-62
2023/03/05 06:46:26;;;;;;;8.82;3.10;;;5.90;99.90;;;;;;4109068;28;20059;-62
2023/03/05 06:48:27;;;;;;;10.73;2.83;;;5.90;99.90;;;;;;4078618;28;20035;-62
2023/03/05 06:50:27;;;;;;;8.00;2.25;;;5.90;99.90;;;;;;4108362;28;20050;-62
2023/03/05 06:52:28;;;;;;;7.28;2.58;;;5.90;99.90;;;;;;4108798;28;20051;-62
2023/03/05 06:54:28;;;;;;;8.55;2.33;;;5.90;99.90;;;;;;4108507;28;20035;-62
2023/03/05 06:56:30;;;;;;;7.07;2.60;;;5.90;99.90;;;;;;4110482;28;20031;-62
2023/03/05 06:58:30;;;;;;;8.15;2.15;;;5.90;99.90;;;;;;4111964;28;20031;-62
2023/03/05 07:00:31;;;;;;;7.32;2.15;;;5.90;99.90;;;;;;4107308;28;20061;-62
2023/03/05 07:02:31;;;;;;;10.70;2.85;;;5.90;99.90;;;;;;4112262;28;20053;-62
2023/03/05 07:04:32;;;;;;;7.45;2.75;;;5.90;99.90;;;;;;4104956;28;20513;-62
2023/03/05 07:06:34;;;;;;;7.38;2.30;;;5.90;99.90;;;;;;4111701;28;20493;-62
2023/03/05 07:08:36;;;;;;;6.72;2.60;;;5.90;99.90;;;;;;4112474;28;20146;-62
2023/03/05 07:10:42;;;;;;;11.82;2.78;;;6.00;99.90;;;;;;4112406;28;20053;-62
2023/03/05 07:12:42;;;;;;;6.95;2.42;;;5.90;99.90;;;;;;4109380;28;20035;-62
2023/03/05 07:14:43;;;;;;;8.30;2.50;;;5.90;99.90;;;;;;4108591;28;20370;-62
2023/03/05 07:16:44;;;;;;;8.35;3.05;;;5.90;99.90;;;;;;4094115;28;20039;-62
2023/03/05 07:18:45;;;;;;;7.05;2.30;;;6.00;99.90;;;;;;4113733;28;20122;-62
2023/03/05 07:20:45;;;;;;;6.53;2.15;;;6.00;99.90;;;;;;4110575;28;20085;-62
2023/03/05 07:22:46;;;;;;;9.40;2.67;;;6.00;99.90;;;;;;4118205;28;21653;-62
2023/03/05 07:24:46;;;;;;;5.72;2.28;;;6.10;99.90;;;;;;4108293;28;20043;-62
2023/03/05 07:26:47;;;;;;;7.97;2.75;;;6.10;99.90;;;;;;4112542;28;20039;-62
2023/03/05 07:28:48;;;;;;;6.50;2.53;;;6.10;99.90;;;;;;4114232;28;20034;-64
2023/03/05 07:30:57;;;;;;;5.15;2.17;;;6.10;99.90;;;;;;4109644;28;20035;-64
2023/03/05 07:32:57;;;;;;;11.27;2.67;;;6.10;99.90;;;;;;4120652;28;20042;-64
2023/03/05 07:34:58;;;;;;;5.75;2.53;;;6.10;99.90;;;;;;4113341;28;20038;-64
2023/03/05 07:36:58;;;;;;;10.73;3.55;;;6.10;99.90;;;;;;4112002;28;20088;-64
2023/03/05 07:39:00;;;;;;;7.05;2.72;;;6.00;99.90;;;;;;4113157;28;20064;-64
2023/03/05 07:41:22;;;;;;;8.25;2.65;;;6.00;99.90;;;;;;4111608;28;20043;-64
2023/03/05 07:43:22;;;;;;;10.85;3.13;;;6.00;99.90;;;;;;4091107;28;20106;-64
2023/03/05 07:45:23;;;;;;;8.38;2.95;;;6.00;99.90;;;;;;4110038;28;20409;-64
2023/03/05 07:47:24;;;;;;;5.40;2.65;;;6.00;99.90;;;;;;4109003;28;20039;-65
2023/03/05 07:49:24;;;;;;;8.57;2.92;;;6.00;99.90;;;;;;4110998;28;20130;-65
2023/03/05 07:51:26;;;;;;;7.20;2.80;;;6.00;99.90;;;;;;4108541;28;20042;-64
2023/03/05 07:53:27;;;;;;;6.95;2.55;;;6.00;99.90;;;;;;4110628;28;20033;-64
2023/03/05 07:55:27;;;;;;;11.40;2.78;;;5.90;99.90;;;;;;4112423;28;20062;-65
2023/03/05 07:57:28;;;;;;;14.10;3.28;;;6.00;99.90;;;;;;4108858;28;20102;-64
2023/03/05 07:59:29;;;;;;;6.90;2.45;;;5.90;99.90;;;;;;4110086;28;20109;-64
2023/03/05 08:01:30;;;;;;;7.28;2.63;;;5.80;99.90;;;;;;4107488;28;20457;-65
2023/03/05 08:03:31;;;;;;;9.60;2.67;;;5.80;99.90;;;;;;4106889;28;20802;-64
2023/03/05 08:05:31;;;;;;;9.55;2.63;;;5.80;99.90;;;;;;4110840;28;20050;-65
2023/03/05 08:07:32;;;;;;;9.30;2.63;;;5.80;99.90;;;;;;4112293;28;20034;-65
2023/03/05 08:09:33;;;;;;;9.50;2.60;;;5.90;99.90;;;;;;4107453;28;20046;-65
2023/03/05 08:11:33;;;;;;;7.47;2.85;;;5.80;99.90;;;;;;4102162;28;20043;-65
2023/03/05 08:13:34;;;;;;;7.43;2.55;;;5.90;99.90;;;;;;4108526;28;20520;-65
2023/03/05 08:15:36;;;;;;;8.30;2.67;;;5.90;99.90;;;;;;4108904;28;20108;-65
2023/03/05 08:17:37;;;;;;;7.57;2.38;;;5.90;99.90;;;;;;4110660;28;21232;-65
2023/03/05 08:19:37;;;;;;;7.82;2.75;;;6.00;99.90;;;;;;4109085;28;20047;-65
2023/03/05 08:21:38;;;;;;;9.90;2.88;;;6.00;99.90;;;;;;4106564;28;20062;-65
2023/03/05 08:23:39;;;;;;;13.32;3.60;;;5.90;99.90;;;;;;4098550;28;20039;-64
2023/03/05 08:25:39;;;;;;;10.93;3.08;;;5.90;99.90;;;;;;4085519;28;20038;-65
2023/03/05 08:27:41;;;;;;;12.48;3.58;;;5.90;99.90;;;;;;4105642;28;20123;-65
2023/03/05 08:29:42;;;;;;;10.05;3.30;;;5.90;99.90;;;;;;4103993;28;20047;-65
2023/03/05 08:31:46;;;;;;;14.00;4.05;;;5.90;99.90;;;;;;4111920;28;20131;-64
2023/03/05 08:33:52;;;;;;;10.15;3.65;;;5.80;99.90;;;;;;4090240;28;20118;-64
2023/03/05 08:35:52;;;;;;;7.35;3.25;;;5.80;99.90;;;;;;4107204;28;20045;-65
2023/03/05 08:37:53;;;;;;;11.82;3.60;;;5.90;99.90;;;;;;4104196;28;20047;-65
2023/03/05 08:39:55;;;;;;;9.43;3.58;;;5.80;99.90;;;;;;4102395;28;20586;-65
2023/03/05 08:41:55;;;;;;;6.93;3.22;;;5.80;99.90;;;;;;4091755;28;20035;-65
2023/03/05 08:43:56;;;;;;;12.00;3.50;;;5.80;99.90;;;;;;4109765;28;20626;-65
2023/03/05 08:45:58;;;;;;;9.50;3.40;;;5.80;99.90;;;;;;4106377;28;20041;-65
2023/03/05 08:47:59;;;;;;;9.48;3.35;;;5.80;99.90;;;;;;4109365;28;20553;-64
2023/03/05 08:50:00;;;;;;;12.75;3.70;;;5.80;99.90;;;;;;4106446;28;20050;-64
2023/03/05 08:52:00;;;;;;;9.75;3.10;;;5.80;99.90;;;;;;4101397;28;20370;-64
2023/03/05 08:54:02;;;;;;;16.98;3.75;;;5.90;99.90;;;;;;4097689;28;20038;-64
2023/03/05 08:56:03;;;;;;;9.10;3.67;;;5.90;99.90;;;;;;4087836;28;20042;-64
2023/03/05 08:58:04;;;;;;;10.25;3.85;;;5.90;99.90;;;;;;4101243;28;20682;-64
2023/03/05 09:00:06;;;;;;;9.63;3.75;;;5.90;99.90;;;;;;4099857;28;20031;-64
2023/03/05 09:02:08;;;;;;;7.32;3.50;;;6.00;99.90;;;;;;4099783;28;20045;-64
2023/03/05 09:04:09;;;;;;;;;;;6.00;99.90;;;;;;4104032;28;20042;-64
2023/03/05 09:06:13;;;;;;;11.95;4.10;;;5.90;99.90;;;;;;4114941;28;20489;-64
2023/03/05 09:08:14;;;;;;;8.95;3.40;;;6.00;99.90;;;;;;4103300;28;20038;-64
2023/03/05 09:10:17;;;;;;;7.85;3.38;;;6.00;99.90;;;;;;4105144;28;20039;-65
2023/03/05 09:12:17;;;;;;;6.60;3.50;;;6.00;99.90;;;;;;4114254;28;20070;-64
2023/03/05 09:14:18;;;;;;;9.48;3.60;;;6.00;99.90;;;;;;4108343;28;20129;-64
2023/03/05 09:16:19;;;;;;;7.85;3.60;;;6.00;99.90;;;;;;4109495;28;20026;-64
2023/03/05 09:18:20;;;;;;;10.50;3.97;;;6.00;99.90;;;;;;4109797;28;20065;-65
2023/03/05 09:20:21;;;;;;;8.00;3.75;;;6.00;99.90;;;;;;4118703;28;20113;-65
2023/03/05 09:22:21;;;;;;;6.38;3.10;;;6.00;99.90;;;;;;4114188;28;20057;-65
2023/03/05 09:24:22;;;;;;;10.40;4.20;;;6.10;99.90;;;;;;4111120;28;20043;-65
2023/03/05 09:26:23;;;;;;;8.77;4.05;;;6.10;99.90;;;;;;4112980;28;20035;-65
2023/03/05 09:28:23;;;;;;;7.85;3.60;;;6.10;99.90;;;;;;4115136;28;20027;-64
2023/03/05 09:30:24;;;;;;;9.68;3.30;;;6.10;99.90;;;;;;4107628;28;20070;-64
2023/03/05 09:32:24;;;;;;;6.85;3.53;;;6.10;99.90;;;;;;4111047;28;20371;-65
2023/03/05 09:34:25;;;;;;;12.27;3.60;;;6.20;99.90;;;;;;4108973;28;20031;-65
2023/03/05 09:36:29;;;;;;;8.63;3.47;;;6.20;99.90;;;;;;4112052;28;20121;-64
2023/03/05 09:38:30;;;;;;;7.97;3.45;;;6.20;99.90;;;;;;4110555;28;20066;-64
2023/03/05 09:40:44;;;;;;;6.05;3.10;;;6.30;99.90;;;;;;4109814;28;21062;-64
2023/03/05 09:43:22;;;;;;;4.38;2.70;;;6.30;99.90;;;;;;4106116;28;20030;-64
2023/03/05 09:46:00;;;;;;;7.80;2.72;;;6.40;99.90;;;;;;4071178;28;20089;-64
2023/03/05 09:48:05;;;;;;;4.43;2.88;;;6.40;99.90;;;;;;4112764;28;20176;-64
2023/03/05 09:50:36;;;;;;;4.00;2.45;;;6.40;99.90;;;;;;4109849;28;20576;-65
2023/03/05 09:52:48;;;;;;;7.47;2.35;;;6.50;99.90;;;;;;4104402;28;20027;-64
2023/03/05 09:54:54;;;;;;;3.97;2.13;;;6.50;99.90;;;;;;4111661;28;20085;-64
2023/03/05 09:57:00;;;;;;;4.85;2.42;;;6.50;99.90;;;;;;4110788;28;20114;-64
2023/03/05 09:59:24;;;;;;;6.72;2.63;;;6.60;99.90;;;;;;4112001;28;20054;-64
2023/03/05 10:01:37;;;;;;;4.38;2.33;;;6.60;99.90;;;;;;4109077;28;20398;-65
2023/03/05 10:03:43;;;;;;;;;;;6.60;99.90;;;;;;4108343;28;20122;-64
2023/03/05 10:06:07;;;;;;;6.45;2.60;;;6.60;99.90;;;;;;4107426;28;19930;-64
2023/03/05 10:08:10;;;;;;;9.95;2.90;;;6.70;99.90;;;;;;4110987;28;20046;-64
2023/03/05 10:10:21;;;;;;;3.28;2.15;;;6.60;99.90;;;;;;4105602;28;20043;-64
2023/03/05 10:12:41;;;;;;;7.18;2.80;;;6.60;99.90;;;;;;4109079;28;20039;-66
2023/03/05 10:14:42;;;;;;;7.95;2.85;;;6.70;99.90;;;;;;4112095;28;20039;-64
2023/03/05 10:17:17;;;;;;;4.47;2.40;;;6.60;99.90;;;;;;4108516;28;20065;-65
2023/03/05 10:19:49;;;;;;;8.15;3.25;;;6.60;99.90;;;;;;4113507;28;20042;-64
2023/03/05 10:22:09;;;;;;;5.30;2.72;;;6.70;99.90;;;;;;4103552;28;20394;-66
2023/03/05 10:24:57;;;;;;;6.00;3.10;;;6.70;99.90;;;;;;4107194;28;20031;-64
2023/03/05 10:27:05;;;;;;;5.95;2.65;;;6.70;99.90;;;;;;4102078;28;20045;-64
2023/03/05 10:29:30;;;;;;;6.60;2.78;;;6.70;99.90;;;;;;4106812;28;20040;-64
2023/03/05 10:31:45;;;;;;;5.53;2.97;;;6.80;99.90;;;;;;4108773;28;20114;-65
2023/03/05 10:33:51;;;;;;;4.43;2.63;;;6.80;99.90;;;;;;4109574;28;20095;-64
2023/03/05 10:36:28;;;;;;;7.18;2.50;;;6.70;99.90;;;;;;4105099;28;20031;-66
2023/03/05 10:38:55;;;;;;;4.70;2.65;;;6.80;99.90;;;;;;4073197;28;20520;-64
2023/03/05 10:41:01;;;;;;;5.10;2.28;;;6.80;99.90;;;;;;4100423;28;20048;-64
2023/03/05 10:43:20;;;;;;;7.25;2.53;;;6.80;99.90;;;;;;4104200;28;20595;-64
2023/03/05 10:45:27;;;;;;;3.78;2.47;;;6.80;99.90;;;;;;4101662;28;20035;-66
2023/03/05 10:47:43;;;;;;;10.68;5.82;;;6.80;99.90;;;;;;4106004;28;20042;-63